Time;durP1;ratioP1;P1;durP2;ratioP2;P2;SDS_P1;SDS_P2;PMS_P1;PMS_P2;Temp;Humidity;BMP_temperature;BMP_pressure;BME280_temperature;BME280_humidity;BME280_pressure;Samples;Min_cycle;Max_cycle;Signal;HPM_P1;HPM_P2
2022/01/27 05:17:53;;;;;;;30.55;13.75;;;;;;;0.12;86.56;101219.16;5562235;32;203376;-83
2022/01/27 05:20:56;;;;;;;33.28;13.65;;;;;;;0.11;86.41;101226.09;5549505;32;33419;-83
2022/01/27 05:23:58;;;;;;;29.90;14.40;;;;;;;0.13;86.79;101231.34;5550870;32;34424;-83
2022/01/27 05:27:01;;;;;;;30.08;14.25;;;;;;;0.28;86.13;101233.19;5552077;32;34032;-83
2022/01/27 05:30:05;;;;;;;30.77;14.30;;;;;;;0.38;85.39;101223.69;5551366;32;34992;-83
2022/01/27 05:33:09;;;;;;;30.88;14.40;;;;;;;0.30;85.56;101222.75;5553736;32;35695;-83
2022/01/27 05:36:12;;;;;;;30.40;15.38;;;;;;;0.37;85.51;101227.16;5556734;32;34402;-83
2022/01/27 05:39:15;;;;;;;30.58;15.25;;;;;;;0.30;85.52;101222.75;5558328;32;34026;-83
2022/01/27 05:42:17;;;;;;;29.98;14.13;;;;;;;0.29;85.96;101214.03;5553652;32;35212;-83
2022/01/27 05:45:21;;;;;;;28.50;14.73;;;;;;;0.32;85.54;101202.75;5549173;32;34106;-83
2022/01/27 05:48:24;;;;;;;33.15;15.13;;;;;;;0.26;85.81;101214.03;5548177;32;33921;-83
2022/01/27 05:51:26;;;;;;;28.77;14.18;;;;;;;0.24;86.00;101218.34;5550712;32;34003;-83
2022/01/27 05:54:31;;;;;;;29.00;14.05;;;;;;;0.36;85.41;101214.97;5555967;32;34022;-84
2022/01/27 05:57:34;;;;;;;32.28;14.93;;;;;;;0.31;85.53;101216.69;5554984;32;34359;-83
2022/01/27 06:00:37;;;;;;;30.33;14.93;;;;;;;0.38;85.31;101201.06;5550908;32;34304;-83
2022/01/27 06:03:42;;;;;;;26.90;13.48;;;;;;;0.38;84.60;101201.06;5549560;32;35128;-83
2022/01/27 06:06:45;;;;;;;30.02;14.57;;;;;;;0.36;84.82;101209.75;5550278;32;33749;-83
2022/01/27 06:09:47;;;;;;;31.02;15.63;;;;;;;0.35;84.86;101206.25;5549671;32;34031;-83
2022/01/27 06:12:53;;;;;;;32.75;15.35;;;;;;;0.39;84.83;101194.09;5550365;32;34131;-82
2022/01/27 06:15:56;;;;;;;28.50;14.48;;;;;;;0.40;84.85;101199.31;5550536;32;34021;-83
2022/01/27 06:18:59;;;;;;;27.98;14.57;;;;;;;0.51;84.32;101193.31;5550123;32;34627;-85
2022/01/27 06:22:08;;;;;;;29.75;14.80;;;;;;;0.51;84.11;101195.91;5550153;32;34460;-87
2022/01/27 06:25:13;;;;;;;31.45;14.55;;;;;;;0.44;84.42;101210.66;5549331;32;33871;-88
2022/01/27 06:28:16;;;;;;;29.50;14.93;;;;;;;0.45;84.63;101212.41;5539520;32;33939;-84
2022/01/27 06:31:18;;;;;;;29.02;14.35;;;;;;;0.77;83.37;101210.81;5535958;32;34628;-84
2022/01/27 06:34:22;;;;;;;29.80;14.48;;;;;;;0.58;83.95;101217.69;5528061;32;34186;-84
2022/01/27 06:37:24;;;;;;;32.17;15.68;;;;;;;0.49;84.36;101218.50;5542333;32;33934;-83
2022/01/27 06:40:27;;;;;;;28.30;14.30;;;;;;;0.48;84.64;101230.72;5537312;32;33367;-83
2022/01/27 06:43:30;;;;;;;30.10;14.52;;;;;;;0.51;84.52;101228.09;5556111;32;35661;-83
2022/01/27 06:46:35;;;;;;;30.95;15.32;;;;;;;0.63;84.21;101234.25;5557610;32;34102;-83
2022/01/27 06:49:38;;;;;;;32.58;15.57;;;;;;;0.51;84.65;101233.31;5544314;32;34277;-84
2022/01/27 06:52:41;;;;;;;32.53;14.80;;;;;;;0.52;84.95;101235.06;5535729;32;34956;-84
2022/01/27 06:55:45;;;;;;;32.03;16.02;;;;;;;0.61;84.56;101247.31;5532893;32;34153;-82
2022/01/27 06:58:48;;;;;;;31.30;15.63;;;;;;;0.54;84.74;101245.53;5551435;32;33690;-84
2022/01/27 07:01:50;;;;;;;29.42;14.93;;;;;;;0.59;84.37;101241.19;5543189;32;33945;-83
2022/01/27 07:04:53;;;;;;;31.77;15.13;;;;;;;0.61;84.33;101244.69;5556963;32;34565;-84
2022/01/27 07:07:56;;;;;;;30.02;14.68;;;;;;;0.61;84.53;101238.62;5552358;32;33641;-84
2022/01/27 07:10:58;;;;;;;28.20;14.55;;;;;;;0.78;84.16;101241.31;5546031;32;33948;-84
2022/01/27 07:14:01;;;;;;;32.33;15.20;;;;;;;0.75;84.02;101234.31;5534749;32;35860;-84
2022/01/27 07:17:04;;;;;;;32.63;15.43;;;;;;;0.76;83.91;101230.84;5545832;32;33725;-84
2022/01/27 07:20:08;;;;;;;32.45;15.20;;;;;;;0.77;83.69;101232.59;5552528;32;34457;-82
2022/01/27 07:23:15;;;;;;;33.40;14.95;;;;;;;0.72;84.15;101239.53;5541223;32;34683;-82
2022/01/27 07:26:24;;;;;;;31.35;16.02;;;;;;;0.76;84.05;101230.84;5560255;32;33659;-83
2022/01/27 07:29:27;;;;;;;29.52;15.65;;;;;;;0.63;84.44;101216.87;5546047;32;35175;-82
2022/01/27 07:32:30;;;;;;;33.58;16.05;;;;;;;0.68;84.52;101219.50;5538979;32;34912;-83
2022/01/27 07:35:33;;;;;;;34.67;15.20;;;;;;;0.71;84.50;101221.25;5538011;32;34196;-83
2022/01/27 07:38:36;;;;;;;38.75;16.60;;;;;;;0.69;84.62;101209.94;5553274;32;34391;-83
2022/01/27 07:41:39;;;;;;;31.90;16.12;;;;;;;0.69;84.65;101208.16;5554937;32;33702;-82
2022/01/27 07:44:41;;;;;;;29.25;15.20;;;;;;;0.78;84.12;101205.63;5545707;32;34126;-82
2022/01/27 07:47:44;;;;;;;31.67;15.55;;;;;;;0.87;83.67;101204.78;5534166;32;33848;-83
2022/01/27 07:50:47;;;;;;;32.00;15.82;;;;;;;0.83;83.95;101204.75;5534481;32;34071;-82
2022/01/27 07:53:50;;;;;;;28.48;15.07;;;;;;;0.84;83.91;101204.75;5536602;32;33886;-83
2022/01/27 07:57:05;;;;;;;33.30;16.12;;;;;;;0.81;84.15;101207.38;5536553;32;34273;-83
2022/01/27 08:00:10;;;;;;;29.23;14.90;;;;;;;0.98;83.06;101212.66;5535832;32;33961;-83
2022/01/27 08:03:13;;;;;;;30.77;15.65;;;;;;;0.87;83.52;101212.63;5529809;32;34273;-83
2022/01/27 08:06:17;;;;;;;28.98;13.85;;;;;;;0.79;84.27;101212.59;5564055;32;33559;-84
2022/01/27 08:09:20;;;;;;;31.10;14.85;;;;;;;1.09;84.22;101210.06;5557429;32;34034;-83
2022/01/27 08:12:23;;;;;;;32.47;15.13;;;;;;;1.31;81.83;101207.53;5572550;32;33979;-83
2022/01/27 08:15:26;;;;;;;34.22;15.18;;;;;;;1.14;82.27;101205.72;5575100;32;34224;-83
2022/01/27 08:18:29;;;;;;;31.95;14.90;;;;;;;1.06;82.46;101197.84;5561106;32;34056;-83
2022/01/27 08:21:31;;;;;;;32.30;15.73;;;;;;;1.07;82.33;101209.19;5552870;32;35183;-84
2022/01/27 08:24:34;;;;;;;31.75;15.38;;;;;;;1.19;82.11;101197.91;5558364;32;34660;-88
2022/01/27 08:27:40;;;;;;;36.42;16.02;;;;;;;1.09;82.54;101198.75;5542752;32;34470;-89
2022/01/27 08:30:47;;;;;;;33.30;16.73;;;;;;;1.11;82.44;101197.00;5564769;32;36096;-88
2022/01/27 08:33:50;;;;;;;34.75;16.50;;;;;;;1.23;81.94;101206.63;5574712;32;33891;-85
2022/01/27 08:36:53;;;;;;;32.33;16.08;;;;;;;1.18;82.31;101209.22;5551401;32;34212;-84
2022/01/27 08:39:56;;;;;;;35.00;16.65;;;;;;;1.26;82.02;101214.47;5554356;32;33961;-84
2022/01/27 08:43:00;;;;;;;33.33;15.45;;;;;;;1.23;82.02;101211.84;5555031;32;34318;-83
2022/01/27 08:46:03;;;;;;;29.05;14.45;;;;;;;1.46;81.53;101207.53;5553922;32;34224;-82
2022/01/27 08:49:06;;;;;;;30.00;15.18;;;;;;;1.37;81.12;101198.81;5557194;32;34115;-83
2022/01/27 08:52:09;;;;;;;30.17;14.25;;;;;;;1.54;80.93;101190.97;5562744;32;33873;-84
2022/01/27 08:55:12;;;;;;;30.67;15.32;;;;;;;1.70;79.69;101194.47;5562425;32;34866;-84
2022/01/27 08:58:15;;;;;;;31.30;15.10;;;;;;;2.13;78.16;101173.53;5557602;32;34536;-84
2022/01/27 09:01:18;;;;;;;30.10;15.25;;;;;;;2.51;76.54;101174.28;5561052;32;35103;-84
2022/01/27 09:04:21;;;;;;;30.05;14.13;;;;;;;3.04;73.79;101175.81;5540090;32;33930;-85
2022/01/27 09:07:23;;;;;;;31.92;14.98;;;;;;;3.00;72.83;101177.56;5536247;32;34054;-85
2022/01/27 09:10:31;;;;;;;30.48;15.32;;;;;;;3.09;73.07;101192.38;5543447;32;34344;-84
2022/01/27 09:13:34;;;;;;;31.90;14.87;;;;;;;2.97;72.83;101190.72;5567388;32;34679;-84
2022/01/27 09:16:37;;;;;;;33.88;14.10;;;;;;;2.52;74.79;101189.13;5574511;32;36425;-85
2022/01/27 09:20:00;;;;;;;29.58;15.27;;;;;;;2.41;75.32;101189.16;5574851;32;34817;-84
2022/01/27 09:23:12;;;;;;;32.60;14.90;;;;;;;2.28;75.96;101179.59;5550666;32;34169;-85
2022/01/27 09:26:39;;;;;;;30.65;15.25;;;;;;;2.86;73.65;101176.78;5536022;32;35263;-84
2022/01/27 09:29:37;;;;;;;28.92;14.38;;;;;;;3.14;72.69;101185.38;5539616;32;34180;-84
2022/01/27 09:32:40;;;;;;;29.70;14.07;;;;;;;3.16;72.27;101199.34;5537547;32;34290;-84
2022/01/27 09:36:11;;;;;;;31.23;14.50;;;;;;;3.26;71.12;101194.06;5544979;32;34186;-84
2022/01/27 09:39:14;;;;;;;29.17;14.03;;;;;;;3.05;71.92;101188.91;5542110;32;35206;-83
2022/01/27 09:42:17;;;;;;;31.45;16.30;;;;;;;2.95;72.14;101182.84;5554331;32;34653;-88
2022/01/27 09:45:22;;;;;;;32.80;15.00;;;;;;;2.69;72.80;101188.22;5552949;32;33837;-88
2022/01/27 09:48:32;;;;;;;34.28;14.65;;;;;;;2.59;73.51;101197.84;5546823;32;34430;-87
2022/01/27 09:51:40;;;;;;;27.65;13.90;;;;;;;2.81;73.12;101196.00;5550043;32;34429;-82
2022/01/27 09:54:45;;;;;;;32.65;14.18;;;;;;;2.91;72.49;101190.75;5556499;32;33855;-83
2022/01/27 09:57:51;;;;;;;29.87;14.02;;;;;;;2.92;72.23;101192.47;5542480;32;34707;-83
2022/01/27 10:00:54;;;;;;;30.27;14.48;;;;;;;2.74;72.67;101193.41;5550114;32;34179;-82
2022/01/27 10:04:04;;;;;;;29.58;14.57;;;;;;;3.02;72.01;101194.16;5551856;32;34276;-83
2022/01/27 10:07:07;;;;;;;33.75;14.52;;;;;;;3.11;71.36;101188.00;5544930;32;34498;-82
2022/01/27 10:10:14;;;;;;;29.12;15.15;;;;;;;2.96;71.75;101181.09;5553255;32;36675;-83
2022/01/27 10:13:35;;;;;;;30.65;13.70;;;;;;;3.81;67.80;101171.78;5539728;32;34072;-83
2022/01/27 10:16:42;;;;;;;28.60;14.05;;;;;;;3.82;68.26;101172.66;5540113;32;34062;-83
2022/01/27 10:19:53;;;;;;;30.55;14.43;;;;;;;3.76;68.11;101165.69;5545715;32;34599;-83
2022/01/27 10:23:15;;;;;;;25.80;13.40;;;;;;;3.77;68.38;101151.66;5539885;32;34338;-82
2022/01/27 10:26:23;;;;;;;27.08;12.95;;;;;;;4.06;66.96;101147.91;5556628;32;33685;-82
2022/01/27 10:29:35;;;;;;;28.83;12.48;;;;;;;4.38;66.16;101127.44;5558302;32;34172;-84
2022/01/27 10:32:43;;;;;;;26.80;13.02;;;;;;;4.30;65.80;101122.28;5558575;32;34117;-84
2022/01/27 10:35:46;;;;;;;22.85;10.77;;;;;;;5.52;63.22;101111.81;5558543;32;34279;-83
2022/01/27 10:38:51;;;;;;;24.92;12.02;;;;;;;6.40;65.74;101111.09;5558282;32;33801;-84
2022/01/27 10:42:00;;;;;;;22.13;11.85;;;;;;;6.00;59.74;101114.47;5554245;32;34751;-84
2022/01/27 10:45:06;;;;;;;23.90;12.50;;;;;;;6.38;57.95;101112.03;5538859;32;34169;-88
2022/01/27 10:48:24;;;;;;;22.02;11.25;;;;;;;6.50;56.98;101103.88;5539962;32;35045;-86
2022/01/27 10:51:33;;;;;;;23.58;11.93;;;;;;;7.16;57.19;101100.66;5538274;32;33931;-83
2022/01/27 10:54:42;;;;;;;20.67;10.50;;;;;;;6.86;55.65;101080.25;5538286;32;34993;-82
2022/01/27 10:57:52;;;;;;;24.85;12.18;;;;;;;7.34;56.74;101072.09;5543558;32;34303;-82
2022/01/27 11:01:00;;;;;;;24.60;12.82;;;;;;;6.91;54.48;101069.56;5546365;32;34641;-82
2022/01/27 11:04:05;;;;;;;29.52;14.30;;;;;;;6.82;54.40;101069.78;5558829;32;34461;-81
2022/01/27 11:07:13;;;;;;;27.80;13.15;;;;;;;5.44;58.56;101076.84;5541195;32;34643;-83
2022/01/27 11:10:17;;;;;;;24.08;13.02;;;;;;;5.74;58.58;101078.97;5555336;32;33930;-82
2022/01/27 11:13:22;;;;;;;23.70;12.48;;;;;;;5.36;59.05;101070.84;5539202;32;34690;-82
2022/01/27 11:16:35;;;;;;;30.55;14.20;;;;;;;5.02;59.68;101059.09;5560016;32;34512;-82
2022/01/27 11:20:21;;;;;;;27.35;13.48;;;;;;;4.57;62.00;101065.88;5555771;32;33971;-83
2022/01/27 11:26:29;;;;;;;27.15;13.15;;;;;;;6.47;56.11;101053.84;5544122;32;34438;-83
2022/01/27 11:29:40;;;;;;;26.20;13.65;;;;;;;6.04;57.05;101059.09;5544288;32;33562;-82
2022/01/27 11:33:02;;;;;;;28.85;14.70;;;;;;;5.36;59.47;101041.91;5546294;32;35254;-82
2022/01/27 11:36:25;;;;;;;26.52;13.95;;;;;;;4.99;61.01;101031.09;5550447;32;33917;-82
2022/01/27 11:39:48;;;;;;;24.42;13.52;;;;;;;5.45;59.54;101038.25;5553040;32;33617;-82
2022/01/27 11:42:56;;;;;;;27.65;14.27;;;;;;;5.49;58.70;101026.78;5542023;32;35302;-83
2022/01/27 11:46:14;;;;;;;24.75;12.65;;;;;;;6.39;56.10;101014.47;5554572;32;34455;-84
2022/01/27 11:49:45;;;;;;;26.17;14.38;;;;;;;6.85;55.83;101015.19;5563902;32;34339;-84
2022/01/27 11:52:53;;;;;;;24.02;13.35;;;;;;;6.78;55.36;101005.69;5556061;32;34181;-84
2022/01/27 11:55:59;;;;;;;29.80;14.65;;;;;;;6.60;55.15;101010.50;5556626;32;34971;-83
2022/01/27 11:59:04;;;;;;;29.02;13.40;;;;;;;6.05;56.88;101013.41;5557959;32;34896;-84
2022/01/27 12:02:07;;;;;;;26.70;13.48;;;;;;;6.22;56.82;101011.34;5557069;32;35279;-83
2022/01/27 12:05:13;;;;;;;24.25;13.18;;;;;;;6.23;56.79;101011.31;5563180;32;35278;-81
2022/01/27 12:08:22;;;;;;;27.77;14.60;;;;;;;6.05;57.44;100996.78;5562243;32;35293;-82
2022/01/27 12:11:58;;;;;;;24.15;13.95;;;;;;;6.36;56.42;101004.00;5548037;32;34439;-83
2022/01/27 12:15:04;;;;;;;26.12;13.77;;;;;;;5.53;58.56;101004.75;5551907;32;34890;-83
2022/01/27 12:18:34;;;;;;;25.55;13.70;;;;;;;5.66;58.40;101008.91;5545867;32;33902;-82
2022/01/27 12:22:00;;;;;;;26.35;13.60;;;;;;;5.93;57.32;100998.72;5547174;32;33770;-82
2022/01/27 12:25:05;;;;;;;25.33;13.85;;;;;;;5.58;58.22;101002.91;5552108;32;33979;-82
2022/01/27 12:28:07;;;;;;;25.73;12.95;;;;;;;5.29;59.21;100992.91;5550141;32;34459;-82
2022/01/27 12:31:11;;;;;;;26.42;13.02;;;;;;;5.36;59.17;100989.28;5554113;32;34026;-83
2022/01/27 12:34:13;;;;;;;23.90;12.52;;;;;;;5.53;58.84;100979.31;5553608;32;34327;-83
2022/01/27 12:37:20;;;;;;;22.67;12.65;;;;;;;5.25;59.60;100964.00;5559179;32;34231;-83
2022/01/27 12:40:28;;;;;;;24.10;12.75;;;;;;;5.68;58.22;100965.87;5552923;32;34826;-84
2022/01/27 12:43:31;;;;;;;24.45;12.10;;;;;;;5.87;58.06;100959.34;5539541;32;34776;-83
2022/01/27 12:50:06;;;;;;;27.10;14.18;;;;;;;5.32;59.66;100949.00;5545193;32;34736;-83
2022/01/27 12:53:11;;;;;;;29.63;14.45;;;;;;;5.43;58.96;100937.41;5559475;32;34373;-82
2022/01/27 12:56:15;;;;;;;31.40;14.32;;;;;;;5.27;59.82;100940.31;5558299;32;34955;-82
2022/01/27 12:59:18;;;;;;;27.55;14.75;;;;;;;5.43;59.52;100927.75;5562174;32;34324;-83
2022/01/27 13:02:23;;;;;;;30.23;15.07;;;;;;;5.28;60.39;100925.41;5553628;32;33871;-82
2022/01/27 13:05:43;;;;;;;32.00;16.10;;;;;;;5.01;60.90;100912.75;5547693;32;34244;-81
2022/01/27 13:08:46;;;;;;;29.98;14.93;;;;;;;5.28;60.55;100899.97;5552143;32;34514;-82
2022/01/27 13:11:52;;;;;;;27.60;15.63;;;;;;;5.46;59.71;100889.97;5546089;32;35052;-82
2022/01/27 13:15:04;;;;;;;29.37;14.93;;;;;;;5.70;58.52;100890.38;5562727;32;34837;-82
2022/01/27 13:18:29;;;;;;;32.70;15.82;;;;;;;5.53;58.96;100889.81;5561576;32;34962;-82
2022/01/27 13:21:35;;;;;;;33.65;16.58;;;;;;;5.39;59.68;100879.56;5557756;32;33759;-82
2022/01/27 13:24:50;;;;;;;33.78;15.38;;;;;;;5.40;59.50;100883.94;5555000;32;34180;-82
2022/01/27 13:28:09;;;;;;;29.40;15.65;;;;;;;5.53;58.98;100891.56;5552507;32;35056;-82
2022/01/27 13:31:13;;;;;;;32.67;15.82;;;;;;;5.61;58.57;100881.78;5535737;32;34804;-82
2022/01/27 13:34:17;;;;;;;32.55;16.33;;;;;;;5.61;58.49;100870.38;5546011;32;34193;-82
2022/01/27 13:37:31;;;;;;;33.60;16.08;;;;;;;5.52;58.77;100871.44;5554309;32;33942;-82
2022/01/27 13:44:09;;;;;;;33.95;16.35;;;;;;;5.42;58.35;100856.75;5552764;32;34610;-82
2022/01/27 13:47:12;;;;;;;32.28;15.98;;;;;;;5.35;58.92;100861.25;5553318;32;34410;-82
2022/01/27 13:50:17;;;;;;;31.85;15.70;;;;;;;5.11;59.83;100855.59;5547287;32;34173;-82
2022/01/27 13:53:21;;;;;;;31.75;15.35;;;;;;;5.11;59.38;100838.06;5537539;32;34235;-85
2022/01/27 13:56:23;;;;;;;34.63;16.08;;;;;;;4.96;60.15;100846.22;5538111;32;34462;-86
2022/01/27 13:59:29;;;;;;;33.05;16.77;;;;;;;5.02;60.52;100842.62;5555635;32;33966;-86
2022/01/27 14:02:38;;;;;;;30.98;15.73;;;;;;;4.92;61.27;100844.56;5556707;32;33709;-87
2022/01/27 14:06:02;;;;;;;30.85;15.45;;;;;;;4.92;61.46;100837.53;5557199;32;33735;-82
2022/01/27 14:09:14;;;;;;;34.10;16.62;;;;;;;4.68;62.29;100834.44;5542512;32;34329;-82
2022/01/27 14:12:21;;;;;;;33.60;16.05;;;;;;;4.78;62.38;100818.53;5558025;32;34123;-81
2022/01/27 14:15:34;;;;;;;31.80;16.25;;;;;;;4.64;63.06;100813.50;5558154;32;34073;-81
2022/01/27 14:18:42;;;;;;;34.80;16.42;;;;;;;4.68;63.30;100809.94;5549792;32;34437;-81
2022/01/27 14:21:47;;;;;;;33.92;16.67;;;;;;;4.66;63.88;100819.59;5538698;32;34619;-82
2022/01/27 14:25:20;;;;;;;34.50;16.12;;;;;;;4.57;64.22;100811.00;5538129;32;34037;-82
2022/01/27 14:28:24;;;;;;;31.73;15.75;;;;;;;4.55;64.10;100804.03;5539803;32;34440;-82
2022/01/27 14:31:27;;;;;;;33.88;16.40;;;;;;;4.57;64.12;100810.13;5552025;32;33903;-82
2022/01/27 14:34:38;;;;;;;35.08;17.12;;;;;;;4.59;64.45;100805.72;5563093;32;34114;-81
2022/01/27 14:37:42;;;;;;;35.05;17.50;;;;;;;4.52;64.97;100794.44;5562828;32;34109;-81
2022/01/27 14:40:47;;;;;;;34.20;17.00;;;;;;;4.59;65.18;100803.09;5544495;32;35003;-82
2022/01/27 14:43:50;;;;;;;36.03;16.45;;;;;;;4.53;65.59;100792.69;5553542;32;34294;-81
2022/01/27 14:46:57;;;;;;;37.38;16.65;;;;;;;4.55;65.68;100781.25;5543994;32;34447;-82
2022/01/27 14:50:00;;;;;;;35.30;16.37;;;;;;;4.46;66.15;100784.03;5539945;32;34724;-82
2022/01/27 14:53:04;;;;;;;37.45;17.10;;;;;;;4.43;66.77;100787.59;5537924;32;34133;-83
2022/01/27 14:56:07;;;;;;;36.45;17.85;;;;;;;4.39;67.26;100788.56;5538426;32;34929;-86
2022/01/27 14:59:10;;;;;;;42.85;18.25;;;;;;;4.25;68.03;100787.91;5539056;32;33819;-86
2022/01/27 15:02:13;;;;;;;40.70;18.33;;;;;;;4.33;67.96;100791.28;5547421;32;33943;-86
2022/01/27 15:05:18;;;;;;;36.60;17.58;;;;;;;4.31;68.06;100778.16;5547455;32;34306;-86
2022/01/27 15:08:21;;;;;;;41.83;18.95;;;;;;;4.28;68.05;100767.69;5545858;32;34145;-82
2022/01/27 15:11:23;;;;;;;40.90;18.40;;;;;;;4.03;69.10;100760.22;5559197;32;33871;-82
2022/01/27 15:21:09;;;;;;;43.75;19.23;;;;;;;3.97;69.89;100760.34;5541942;32;34989;-81
2022/01/27 15:24:12;;;;;;;44.42;19.10;;;;;;;4.04;69.97;100753.25;5538885;32;34255;-82
2022/01/27 15:27:15;;;;;;;45.17;20.10;;;;;;;3.87;70.86;100754.38;5546138;32;34797;-82
2022/01/27 15:30:19;;;;;;;43.03;20.30;;;;;;;3.88;71.20;100761.34;5555402;32;34243;-82
2022/01/27 15:33:25;;;;;;;44.08;20.05;;;;;;;3.91;71.30;100755.19;5555288;32;33848;-82
2022/01/27 15:36:30;;;;;;;45.05;21.15;;;;;;;3.83;71.78;100757.06;5550485;32;34480;-82
2022/01/27 15:39:55;;;;;;;44.75;20.67;;;;;;;3.75;72.29;100744.94;5556366;32;34183;-82
2022/01/27 15:42:59;;;;;;;48.28;21.60;;;;;;;3.72;72.49;100737.09;5552128;32;33990;-81
2022/01/27 15:46:02;;;;;;;44.08;21.90;;;;;;;3.55;73.04;100741.72;5555372;32;35092;-82
2022/01/27 15:49:05;;;;;;;39.70;20.23;;;;;;;3.45;73.47;100744.50;5551582;32;34223;-81
2022/01/27 15:52:09;;;;;;;44.88;20.37;;;;;;;3.59;73.25;100743.44;5552006;32;34475;-81
2022/01/27 15:55:13;;;;;;;46.22;21.20;;;;;;;3.45;73.45;100739.25;5555643;32;35212;-81
2022/01/27 15:58:16;;;;;;;42.88;20.58;;;;;;;3.56;72.88;100730.38;5556247;32;34357;-82
2022/01/27 16:01:20;;;;;;;42.65;20.70;;;;;;;3.50;73.10;100729.56;5555541;32;34477;-82
2022/01/27 16:04:24;;;;;;;40.55;19.15;;;;;;;3.33;73.59;100729.78;5549005;32;34126;-82
2022/01/27 16:07:27;;;;;;;39.03;19.20;;;;;;;3.23;73.57;100721.19;5555918;32;33980;-82
2022/01/27 16:10:30;;;;;;;39.35;19.35;;;;;;;3.27;73.29;100729.03;5556720;32;33957;-82
2022/01/27 16:13:34;;;;;;;34.95;18.85;;;;;;;3.36;72.73;100714.03;5556207;32;34791;-82
2022/01/27 16:16:37;;;;;;;37.78;18.00;;;;;;;3.24;73.22;100717.66;5555941;32;34241;-82
2022/01/27 16:19:40;;;;;;;36.72;17.98;;;;;;;3.27;72.99;100726.41;5556636;32;34004;-82
2022/01/27 16:22:44;;;;;;;34.90;17.17;;;;;;;3.26;72.75;100717.66;5556638;32;33579;-81
2022/01/27 16:25:48;;;;;;;35.67;17.73;;;;;;;3.31;72.40;100712.34;5555951;32;34997;-85
2022/01/27 16:28:51;;;;;;;32.80;16.35;;;;;;;3.22;72.63;100705.50;5555680;32;34096;-86
2022/01/27 16:31:54;;;;;;;31.62;16.35;;;;;;;3.22;72.62;100708.97;5556975;32;33378;-86
2022/01/27 16:34:57;;;;;;;35.65;17.17;;;;;;;3.14;72.62;100702.97;5556430;32;33823;-86
2022/01/27 16:37:59;;;;;;;34.00;17.10;;;;;;;3.20;72.53;100697.66;5557188;32;34482;-82
2022/01/27 16:41:03;;;;;;;34.58;17.48;;;;;;;3.15;72.57;100696.84;5557476;32;33845;-82
2022/01/27 16:44:06;;;;;;;32.45;16.25;;;;;;;3.12;72.75;100702.09;5562070;32;34329;-82
